Terminal Aerodrome Forecast
Issued by NWS

Home | Current Version | Previous Version | Graphics & Text | Print | Product List | Glossary On
Versions: 1 2 3 4 5 6 7 8 9 10 11 12 13
000
FTUS42 KMHX 271720
TAFPGV
TAF
KPGV 271720Z 2718/2818 14006KT P6SM SCT040 BKN250
     FM280800 00000KT 2SM BR BKN008
     FM281300 12005KT P6SM SCT030
      AMD LTD TO CLD VIS AND WIND=

USA.gov is the U.S. government's official web portal to all federal, state and local government web resources and services.